Oxnard Airport Oxnard US
ICAO: KOXR
IATA: OXR
Category: Medium
Scheduled Services: No

Elevation: 45 ft
TransAlt. 18000 ft.

Airport Communications:
PT MUGU APP/DEP:124.7
ATIS:118.05
CTAF:134.95
GND:121.9
TWR:134.95

KOXR Zoom In..

If you have problems with the map follow the link
https://www.worldairports.se/pages/airport.php?
ICAO=KOXR

Runways:

(A) RW 07 length 5953 ft width 100 ft
---- / hdg 76

(B) RW 25 length 5953 ft width 100 ft
ILS 108.70 / hdg 256

Location; KOXR
Day. 14 / Time. 15.08 Zulu
* Altimeter: 29.98
* Temperature: 11° c. 51.8°f.
* Wind from: 070° Speed 05 kn.
Dewpoint: 11° c.
Visibility: 2 m.
Clouds: Few 1700 ft.
Conditions: Mist.

KOXR 141508Z 07005KT 2 1/2SM BR FEW017 11/11 A2998 RMK AO2 T01110106


Wind From 070°
Speed 05 kn.

 
 
jpsmedia worldairports.se 2019   terms of use